Time;durP1;ratioP1;P1;durP2;ratioP2;P2;SDS_P1;SDS_P2;PMS_P1;PMS_P2;Temp;Humidity;BMP_temperature;BMP_pressure;BME280_temperature;BME280_humidity;BME280_pressure;Samples;Min_cycle;Max_cycle;Signal;HPM_P1;HPM_P2
2022/03/25 00:00:00;;;;;;;;;;;5.00;87.10;;;;;;5085779;28;21619;-71
2022/03/25 00:02:27;;;;;;;;;;;5.00;87.40;;;;;;5071553;28;20204;-71
2022/03/25 00:04:54;;;;;;;;;;;5.00;87.90;;;;;;5066030;28;19943;-71
2022/03/25 00:07:20;;;;;;;;;;;4.90;88.30;;;;;;5065675;28;19928;-71
2022/03/25 00:09:47;;;;;;;;;;;4.90;88.70;;;;;;5065943;28;19928;-71
2022/03/25 00:12:14;;;;;;;;;;;4.90;88.80;;;;;;5065921;28;19921;-71
2022/03/25 00:14:41;;;;;;;;;;;4.90;88.90;;;;;;5065481;28;19928;-71
2022/03/25 00:17:08;;;;;;;;;;;4.90;89.10;;;;;;5065350;28;19920;-71
2022/03/25 00:19:35;;;;;;;;;;;4.80;89.20;;;;;;5068964;28;19920;-71
2022/03/25 00:22:01;;;;;;;;;;;4.80;89.40;;;;;;5085677;28;19928;-71
2022/03/25 00:24:28;;;;;;;;;;;4.80;89.50;;;;;;5085688;28;19921;-71
2022/03/25 00:26:54;;;;;;;;;;;4.80;89.30;;;;;;5084878;28;19920;-71
2022/03/25 00:29:21;;;;;;;;;;;4.70;89.10;;;;;;5085572;28;20111;-71
2022/03/25 00:31:49;;;;;;;;;;;4.60;89.40;;;;;;5085610;28;19920;-70
2022/03/25 00:34:15;;;;;;;;;;;4.60;89.40;;;;;;5085452;28;19921;-71
2022/03/25 00:36:42;;;;;;;;;;;4.50;89.50;;;;;;5084969;28;19920;-70
2022/03/25 00:39:09;;;;;;;;;;;4.50;89.70;;;;;;5085407;28;20200;-72
2022/03/25 00:41:36;;;;;;;;;;;4.40;89.50;;;;;;5084348;28;20223;-70
2022/03/25 00:44:04;;;;;;;;;;;4.30;89.80;;;;;;5085155;28;19928;-71
2022/03/25 00:46:30;;;;;;;;;;;4.30;89.70;;;;;;5084776;28;19921;-70
2022/03/25 00:48:58;;;;;;;;;;;4.30;90.00;;;;;;5085231;28;19943;-70
2022/03/25 00:51:25;;;;;;;;;;;4.20;90.00;;;;;;5082592;28;19959;-71
2022/03/25 00:53:51;;;;;;;;;;;4.20;90.00;;;;;;5084826;28;19920;-72
2022/03/25 00:56:18;;;;;;;;;;;4.20;90.00;;;;;;5081803;28;20103;-70
2022/03/25 00:58:44;;;;;;;;;;;4.20;90.10;;;;;;5084765;28;20204;-70
2022/03/25 01:01:11;;;;;;;;;;;4.10;90.10;;;;;;5069086;28;19925;-71
2022/03/25 01:03:37;;;;;;;;;;;4.00;90.30;;;;;;5064938;28;19928;-71
2022/03/25 01:06:05;;;;;;;;;;;4.00;90.40;;;;;;5064431;28;19929;-71
2022/03/25 01:08:32;;;;;;;;;;;4.00;90.50;;;;;;5064779;28;19924;-71
2022/03/25 01:10:58;;;;;;;;;;;4.00;90.60;;;;;;5064893;28;19927;-71
2022/03/25 01:13:25;;;;;;;;;;;4.00;90.60;;;;;;5065063;28;19920;-70
2022/03/25 01:15:52;;;;;;;;;;;3.90;90.60;;;;;;5063685;28;19927;-71
2022/03/25 01:18:18;;;;;;;;;;;3.90;90.80;;;;;;5064717;28;20101;-71
2022/03/25 01:20:45;;;;;;;;;;;3.90;91.00;;;;;;5064598;28;19946;-70
2022/03/25 01:23:13;;;;;;;;;;;3.90;91.30;;;;;;5064521;28;20266;-70
2022/03/25 01:25:39;;;;;;;;;;;3.80;91.30;;;;;;5063984;28;19927;-71
2022/03/25 01:28:06;;;;;;;;;;;3.70;91.30;;;;;;5064592;28;19925;-71
2022/03/25 01:30:32;;;;;;;;;;;3.70;91.30;;;;;;5064235;28;19927;-70
2022/03/25 01:32:59;;;;;;;;;;;3.70;91.50;;;;;;5064386;28;20204;-70
2022/03/25 01:35:26;;;;;;;;;;;3.70;91.60;;;;;;5063569;28;20139;-71
2022/03/25 01:37:52;;;;;;;;;;;3.70;91.80;;;;;;5064178;28;19921;-70
2022/03/25 01:40:20;;;;;;;;;;;3.60;91.80;;;;;;5064288;28;19920;-70
2022/03/25 01:42:47;;;;;;;;;;;3.60;91.90;;;;;;5064345;28;19952;-71
2022/03/25 01:45:13;;;;;;;;;;;3.50;92.00;;;;;;5063763;28;20124;-71
2022/03/25 01:47:41;;;;;;;;;;;3.50;92.20;;;;;;5063874;28;19921;-70
2022/03/25 01:50:17;;;;;;;;;;;3.50;92.40;;;;;;5068389;28;20220;-71
2022/03/25 01:52:44;;;;;;;;;;;3.50;92.60;;;;;;5083852;28;19929;-71
2022/03/25 01:55:15;;;;;;;;;;;3.40;92.70;;;;;;5083051;28;20187;-71
2022/03/25 01:57:44;;;;;;;;;;;3.40;92.70;;;;;;5083513;28;20111;-70
2022/03/25 02:00:14;;;;;;;;;;;3.40;92.70;;;;;;5082828;28;21271;-71
2022/03/25 02:02:40;;;;;;;;;;;3.40;92.80;;;;;;5084006;28;19958;-70
2022/03/25 02:05:07;;;;;;;;;;;3.40;93.30;;;;;;5083499;28;19926;-70
2022/03/25 02:07:34;;;;;;;;;;;3.30;93.00;;;;;;5083465;28;19920;-71
2022/03/25 02:10:00;;;;;;;;;;;3.40;93.10;;;;;;5079939;28;19921;-71
2022/03/25 02:12:27;;;;;;;;;;;3.30;93.10;;;;;;5063719;28;19988;-70
2022/03/25 02:14:57;;;;;;;;;;;3.30;93.10;;;;;;5064424;28;20204;-71
2022/03/25 02:17:23;;;;;;;;;;;3.20;93.20;;;;;;5062768;28;20296;-71
2022/03/25 02:19:50;;;;;;;;;;;3.20;93.40;;;;;;5064996;28;19927;-71
2022/03/25 02:22:18;;;;;;;;;;;3.20;93.60;;;;;;5083702;28;19926;-70
2022/03/25 02:24:45;;;;;;;;;;;3.10;93.90;;;;;;5083371;28;19920;-71
2022/03/25 02:27:12;;;;;;;;;;;3.10;93.90;;;;;;5082730;28;20231;-70
2022/03/25 02:29:39;;;;;;;;;;;3.10;94.00;;;;;;5082682;28;19987;-71
2022/03/25 02:32:06;;;;;;;;;;;3.00;94.30;;;;;;5083218;28;20090;-70
2022/03/25 02:34:32;;;;;;;;;;;3.00;94.60;;;;;;5083443;28;20115;-71
2022/03/25 02:37:00;;;;;;;;;;;2.90;94.90;;;;;;5082818;28;20204;-70
2022/03/25 02:39:28;;;;;;;;;;;2.80;95.20;;;;;;5083362;28;19920;-71
2022/03/25 02:41:55;;;;;;;;;;;2.70;95.40;;;;;;5083188;28;20216;-71
2022/03/25 02:44:22;;;;;;;;;;;2.60;95.50;;;;;;5081142;28;20138;-70
2022/03/25 02:46:48;;;;;;;;;;;2.50;95.80;;;;;;5082798;28;19920;-70
2022/03/25 02:49:15;;;;;;;;;;;2.50;96.00;;;;;;5072500;28;19920;-71
2022/03/25 02:51:42;;;;;;;;;;;2.50;96.20;;;;;;5063292;28;20322;-70
2022/03/25 02:54:09;;;;;;;;;;;2.60;96.40;;;;;;5069200;28;19936;-71
2022/03/25 02:56:37;;;;;;;;;;;2.60;96.50;;;;;;5076273;28;19924;-71
2022/03/25 02:59:03;;;;;;;;;;;2.60;96.60;;;;;;5076252;28;19927;-71
2022/03/25 03:01:30;;;;;;;;;;;2.60;97.20;;;;;;5082978;28;19928;-71
2022/03/25 03:03:57;;;;;;;;;;;2.60;96.90;;;;;;5082933;28;19920;-71
2022/03/25 03:06:24;;;;;;;;;;;2.60;97.00;;;;;;5082700;28;20226;-71
2022/03/25 03:08:51;;;;;;;;;;;2.50;97.10;;;;;;5084846;28;20212;-71
2022/03/25 03:11:17;;;;;;;;;;;2.60;97.20;;;;;;5087125;28;20215;-70
2022/03/25 03:13:45;;;;;;;;;;;2.50;97.20;;;;;;5086835;28;19920;-71
2022/03/25 03:16:12;;;;;;;;;;;2.50;97.20;;;;;;5086227;28;20246;-71
2022/03/25 03:18:39;;;;;;;;;;;2.50;97.70;;;;;;5086999;28;19927;-70
2022/03/25 03:21:05;;;;;;;;;;;2.40;98.00;;;;;;5086367;28;19928;-70
2022/03/25 03:23:32;;;;;;;;;;;2.30;98.30;;;;;;5086856;28;19921;-71
2022/03/25 03:25:59;;;;;;;;;;;2.20;98.70;;;;;;5086583;28;19956;-70
2022/03/25 03:28:25;;;;;;;;;;;2.20;99.10;;;;;;5086336;28;19928;-71
2022/03/25 03:30:55;;;;;;;;;;;2.10;99.40;;;;;;5086743;28;19927;-71
2022/03/25 03:33:23;;;;;;;;;;;2.10;99.70;;;;;;5086732;28;19971;-70
2022/03/25 03:35:49;;;;;;;;;;;2.00;99.90;;;;;;5085880;28;20207;-71
2022/03/25 03:38:16;;;;;;;;;;;2.00;99.90;;;;;;5085921;28;20227;-71
2022/03/25 03:40:43;;;;;;;;;;;2.00;99.90;;;;;;5066360;28;19921;-70
2022/03/25 03:43:10;;;;;;;;;;;2.00;99.90;;;;;;5066211;28;20310;-70
2022/03/25 03:45:36;;;;;;;;;;;2.00;99.90;;;;;;5066061;28;19921;-71
2022/03/25 03:48:04;;;;;;;;;;;1.90;99.90;;;;;;5066244;28;19929;-71
2022/03/25 03:50:31;;;;;;;;;;;1.90;99.90;;;;;;5076196;28;19921;-71
2022/03/25 03:52:58;;;;;;;;;;;1.90;99.90;;;;;;5066128;28;19956;-71
2022/03/25 03:55:24;;;;;;;;;;;1.90;99.90;;;;;;5085111;28;20123;-71
2022/03/25 03:57:51;;;;;;;;;;;1.90;99.90;;;;;;5085859;28;19921;-70
2022/03/25 04:00:17;;;;;;;;;;;1.90;99.90;;;;;;5085338;28;20101;-70
2022/03/25 04:02:45;;;;;;;;;;;1.90;99.90;;;;;;5086250;28;20102;-71
2022/03/25 04:05:13;;;;;;;;;;;1.90;99.90;;;;;;5078823;28;19921;-71
2022/03/25 04:07:40;;;;;;;;;;;1.90;99.90;;;;;;5065795;28;19967;-71
2022/03/25 04:10:07;;;;;;;;;;;1.90;99.90;;;;;;5065569;28;19927;-71
2022/03/25 04:12:34;;;;;;;;;;;1.90;99.90;;;;;;5066051;28;19921;-71
2022/03/25 04:15:01;;;;;;;;;;;1.90;99.90;;;;;;5065589;28;20208;-70
2022/03/25 04:17:27;;;;;;;;;;;1.90;99.90;;;;;;5065446;28;19928;-70
2022/03/25 04:19:54;;;;;;;;;;;1.90;99.90;;;;;;5077387;28;19927;-71
2022/03/25 04:22:22;;;;;;;;;;;1.90;99.90;;;;;;5085825;28;20300;-71
2022/03/25 04:24:48;;;;;;;;;;;1.90;99.90;;;;;;5085423;28;19924;-71
2022/03/25 04:27:15;;;;;;;;;;;1.90;99.90;;;;;;5085539;28;19924;-70
2022/03/25 04:29:42;;;;;;;;;;;1.90;99.90;;;;;;5084907;28;19920;-70
2022/03/25 04:32:08;;;;;;;;;;;1.80;99.90;;;;;;5082000;28;20071;-71
2022/03/25 04:34:35;;;;;;;;;;;1.80;99.90;;;;;;5085483;28;19988;-71
2022/03/25 04:37:02;;;;;;;;;;;1.70;99.90;;;;;;5085023;28;19921;-70
2022/03/25 04:39:29;;;;;;;;;;;1.70;99.90;;;;;;5084628;28;20126;-71
2022/03/25 04:41:56;;;;;;;;;;;1.70;99.90;;;;;;5082870;28;19920;-71
2022/03/25 04:44:23;;;;;;;;;;;1.70;99.90;;;;;;5065470;28;19921;-71
2022/03/25 04:46:49;;;;;;;;;;;1.70;99.90;;;;;;5065005;28;19924;-71
2022/03/25 04:49:16;;;;;;;;;;;1.60;99.90;;;;;;5071418;28;19927;-70
2022/03/25 04:51:42;;;;;;;;;;;1.70;99.90;;;;;;5084926;28;19927;-71
2022/03/25 04:54:09;;;;;;;;;;;1.60;99.90;;;;;;5085424;28;19935;-70
2022/03/25 04:56:38;;;;;;;;;;;1.60;99.90;;;;;;5082102;28;20085;-70
2022/03/25 04:59:04;;;;;;;;;;;1.60;99.90;;;;;;5084399;28;19980;-71
2022/03/25 05:01:31;;;;;;;;;;;1.60;99.90;;;;;;5085299;28;19927;-71
2022/03/25 05:03:58;;;;;;;;;;;1.60;99.90;;;;;;5084732;28;20370;-70
2022/03/25 05:06:24;;;;;;;;;;;1.60;99.90;;;;;;5084105;28;19920;-71
2022/03/25 05:08:51;;;;;;;;;;;1.60;99.90;;;;;;5082157;28;19964;-71
2022/03/25 05:11:18;;;;;;;;;;;1.60;99.90;;;;;;5064592;28;19927;-71
2022/03/25 05:13:46;;;;;;;;;;;1.60;99.90;;;;;;5064758;28;19921;-71
2022/03/25 05:16:13;;;;;;;;;;;1.50;99.90;;;;;;5064385;28;19971;-71
2022/03/25 05:18:39;;;;;;;;;;;1.60;99.90;;;;;;5064571;28;19925;-70
2022/03/25 05:21:06;;;;;;;;;;;1.50;99.90;;;;;;5064418;28;19921;-71
2022/03/25 05:23:33;;;;;;;;;;;1.50;99.90;;;;;;5064355;28;20205;-70
2022/03/25 05:25:59;;;;;;;;;;;1.50;99.90;;;;;;5064038;28;19921;-71
2022/03/25 05:28:26;;;;;;;;;;;1.50;99.90;;;;;;5076556;28;19920;-70
2022/03/25 05:30:54;;;;;;;;;;;1.50;99.90;;;;;;5074646;28;19943;-71
2022/03/25 05:33:21;;;;;;;;;;;1.40;99.90;;;;;;5084182;28;19921;-70
2022/03/25 05:35:48;;;;;;;;;;;1.40;99.90;;;;;;5083701;28;19958;-70
2022/03/25 05:38:15;;;;;;;;;;;1.40;99.90;;;;;;5084225;28;19939;-71
2022/03/25 05:40:41;;;;;;;;;;;1.40;99.90;;;;;;5077322;28;19920;-70
2022/03/25 05:43:08;;;;;;;;;;;1.40;99.90;;;;;;5064466;28;19927;-71
2022/03/25 05:45:35;;;;;;;;;;;1.40;99.90;;;;;;5063892;28;20019;-70
2022/03/25 05:48:03;;;;;;;;;;;1.30;99.90;;;;;;5064420;28;19920;-70
2022/03/25 05:50:30;;;;;;;;;;;1.30;99.90;;;;;;5068229;28;20147;-71
2022/03/25 05:52:56;;;;;;;;;;;1.30;99.90;;;;;;5084176;28;19991;-70
2022/03/25 05:55:23;;;;;;;;;;;1.30;99.90;;;;;;5083274;28;19966;-71
2022/03/25 05:57:49;;;;;;;;;;;1.30;99.90;;;;;;5081639;28;19928;-70
2022/03/25 06:00:17;;;;;;;;;;;1.30;99.90;;;;;;5081479;28;19920;-71
2022/03/25 06:02:44;;;;;;;;;;;1.30;99.90;;;;;;5063672;28;20205;-71
2022/03/25 06:05:13;;;;;;;;;;;1.40;99.90;;;;;;5063835;28;20117;-70
2022/03/25 06:07:41;;;;;;;;;;;1.40;99.90;;;;;;5063412;28;19920;-71
2022/03/25 06:10:08;;;;;;;;;;;1.40;99.90;;;;;;5064122;28;19929;-71
2022/03/25 06:12:35;;;;;;;;;;;1.50;99.90;;;;;;5083908;28;19921;-70
2022/03/25 06:15:01;;;;;;;;;;;1.50;99.90;;;;;;5083350;28;20204;-70
2022/03/25 06:17:28;;;;;;;;;;;1.50;99.90;;;;;;5083292;28;19921;-70
2022/03/25 06:19:54;;;;;;;;;;;1.50;99.90;;;;;;5083475;28;19927;-70
2022/03/25 06:22:24;;;;;;;;;;;1.50;99.90;;;;;;5082904;28;19920;-70
2022/03/25 06:24:51;;;;;;;;;;;1.50;99.90;;;;;;5083782;28;19928;-70
2022/03/25 06:27:17;;;;;;;;;;;1.60;99.90;;;;;;5082888;28;20222;-70
2022/03/25 06:29:44;;;;;;;;;;;1.60;99.90;;;;;;5083167;28;19926;-70
2022/03/25 06:32:10;;;;;;;;;;;1.60;99.90;;;;;;5066809;28;19928;-70
2022/03/25 06:34:37;;;;;;;;;;;1.60;99.90;;;;;;5083254;28;19924;-70
2022/03/25 06:37:04;;;;;;;;;;;1.60;99.90;;;;;;5083114;28;19921;-70
2022/03/25 06:39:32;;;;;;;;;;;1.70;99.90;;;;;;5083571;28;20208;-70
2022/03/25 06:41:58;;;;;;;;;;;1.70;99.90;;;;;;5067936;28;20119;-70
2022/03/25 06:44:25;;;;;;;;;;;1.70;99.90;;;;;;5077939;28;19920;-70
2022/03/25 06:46:51;;;;;;;;;;;1.80;99.90;;;;;;5082937;28;19921;-70
2022/03/25 06:49:18;;;;;;;;;;;1.90;99.90;;;;;;5083375;28;19927;-70
2022/03/25 06:51:45;;;;;;;;;;;1.90;99.90;;;;;;5073500;28;19921;-70
2022/03/25 06:54:12;;;;;;;;;;;2.00;99.90;;;;;;5063661;28;19938;-69
2022/03/25 06:56:40;;;;;;;;;;;2.10;99.90;;;;;;5062876;28;19927;-69
2022/03/25 06:59:07;;;;;;;;;;;2.20;99.90;;;;;;5079971;28;19927;-70
2022/03/25 07:01:34;;;;;;;;;;;2.30;99.90;;;;;;5079852;28;19920;-70
2022/03/25 07:04:03;;;;;;;;;;;2.30;99.90;;;;;;5082520;28;19920;-69
2022/03/25 07:06:31;;;;;;;;;;;2.40;99.90;;;;;;5082375;28;20116;-69
2022/03/25 07:08:59;;;;;;;;;;;2.50;99.90;;;;;;5080910;28;19920;-69
2022/03/25 07:11:25;;;;;;;;;;;2.60;99.90;;;;;;5081895;28;19927;-70
2022/03/25 07:13:54;;;;;;;;;;;2.70;99.90;;;;;;5083019;28;19920;-70
2022/03/25 07:16:20;;;;;;;;;;;2.80;99.90;;;;;;5082039;28;19922;-70
2022/03/25 07:18:47;;;;;;;;;;;3.00;99.90;;;;;;5082625;28;20119;-70
2022/03/25 07:21:13;;;;;;;;;;;3.00;99.90;;;;;;5082493;28;19921;-71
2022/03/25 07:23:40;;;;;;;;;;;3.10;99.90;;;;;;5081828;28;19924;-70
2022/03/25 07:26:07;;;;;;;;;;;3.20;99.90;;;;;;5086644;28;19927;-69
2022/03/25 07:28:34;;;;;;;;;;;3.30;99.90;;;;;;5102593;28;19924;-70
2022/03/25 07:31:02;;;;;;;;;;;3.50;99.90;;;;;;5091851;28;19921;-69
2022/03/25 07:33:28;;;;;;;;;;;3.70;99.90;;;;;;5091310;28;19920;-69
2022/03/25 07:35:56;;;;;;;;;;;3.80;99.90;;;;;;5081885;28;19921;-69
2022/03/25 07:38:23;;;;;;;;;;;4.00;99.90;;;;;;5095784;28;19920;-70
2022/03/25 07:40:49;;;;;;;;;;;4.10;99.90;;;;;;5097407;28;20222;-67
2022/03/25 07:43:16;;;;;;;;;;;4.20;99.90;;;;;;5082444;28;20112;-67
2022/03/25 07:45:42;;;;;;;;;;;4.30;99.90;;;;;;5073314;28;19920;-67
2022/03/25 07:48:10;;;;;;;;;;;4.40;99.90;;;;;;5062412;28;19927;-66
2022/03/25 07:50:37;;;;;;;;;;;4.50;99.90;;;;;;5088190;28;19927;-67
2022/03/25 07:53:04;;;;;;;;;;;4.80;99.90;;;;;;5060597;28;19921;-67
2022/03/25 07:55:30;;;;;;;;;;;4.90;99.90;;;;;;5081297;28;20208;-68
2022/03/25 07:57:57;;;;;;;;;;;5.10;99.90;;;;;;5082409;28;20195;-68
2022/03/25 08:00:24;;;;;;;;;;;5.20;99.90;;;;;;5084915;28;19932;-67
2022/03/25 08:02:52;;;;;;;;;;;5.40;99.90;;;;;;5073821;28;19927;-68
2022/03/25 08:05:20;;;;;;;;;;;5.60;99.90;;;;;;5062235;28;20116;-67
2022/03/25 08:07:48;;;;;;;;;;;5.90;99.90;;;;;;5092019;28;19920;-67
2022/03/25 08:10:16;;;;;;;;;;;6.20;99.90;;;;;;5083238;28;19939;-67
2022/03/25 08:12:43;;;;;;;;;;;6.50;99.90;;;;;;5093518;28;19920;-67
2022/03/25 08:15:10;;;;;;;;;;;6.70;99.90;;;;;;5103913;28;20138;-67
2022/03/25 08:17:45;;;;;;;;;;;7.10;99.90;;;;;;5105374;28;20227;-68
2022/03/25 08:20:12;;;;;;;;;;;7.60;99.90;;;;;;5106330;28;19920;-66
2022/03/25 08:22:40;;;;;;;;;;;7.90;99.90;;;;;;5095282;28;19920;-68
2022/03/25 08:27:51;;;;;;;;;;;8.30;99.90;;;;;;5097498;28;19962;-68
2022/03/25 08:30:17;;;;;;;;;;;8.50;99.90;;;;;;5101377;28;19925;-67
2022/03/25 08:32:44;;;;;;;;;;;8.70;99.30;;;;;;5105940;28;19955;-67
2022/03/25 08:35:11;;;;;;;;;;;8.90;99.20;;;;;;5105744;28;19927;-67
2022/03/25 08:37:38;;;;;;;;;;;9.00;98.90;;;;;;5102397;28;19920;-68
2022/03/25 08:40:06;;;;;;;;;;;9.20;98.60;;;;;;5106003;28;19995;-67
2022/03/25 08:42:33;;;;;;;;;;;9.30;98.90;;;;;;5106210;28;19926;-67
2022/03/25 08:44:59;;;;;;;;;;;9.40;97.90;;;;;;5088098;28;19925;-68
2022/03/25 08:47:26;;;;;;;;;;;9.50;97.70;;;;;;5085196;28;19920;-67
2022/03/25 08:49:53;;;;;;;;;;;9.60;97.60;;;;;;5085717;28;19926;-68
2022/03/25 08:52:20;;;;;;;;;;;9.70;96.80;;;;;;5085647;28;19985;-68
2022/03/25 08:54:47;;;;;;;;;;;9.80;97.00;;;;;;5084149;28;19987;-67
2022/03/25 08:57:15;;;;;;;;;;;9.90;95.60;;;;;;5081644;28;19928;-68
2022/03/25 08:59:42;;;;;;;;;;;10.00;95.20;;;;;;5092098;28;19924;-68
2022/03/25 09:02:09;;;;;;;;;;;10.10;94.60;;;;;;5075652;28;19921;-67
2022/03/25 09:04:36;;;;;;;;;;;10.20;94.00;;;;;;5064647;28;19921;-68
2022/03/25 09:07:03;;;;;;;;;;;10.30;93.80;;;;;;5060338;28;19932;-67
2022/03/25 09:09:30;;;;;;;;;;;10.30;94.00;;;;;;5067577;28;20152;-67
2022/03/25 09:11:57;;;;;;;;;;;10.50;94.10;;;;;;5093682;22;19949;-89
2022/03/25 09:14:33;;;;;;;;;;;10.60;94.20;;;;;;5091785;28;19927;-90
2022/03/25 09:17:00;;;;;;;;;;;10.60;94.70;;;;;;5106939;28;19928;-90
2022/03/25 09:19:27;;;;;;;;;;;10.70;93.80;;;;;;5104865;28;20131;-92
2022/03/25 09:21:53;;;;;;;;;;;10.70;94.00;;;;;;5103136;28;19926;-90
2022/03/25 09:24:20;;;;;;;;;;;10.80;93.60;;;;;;5106825;28;19920;-92
2022/03/25 09:26:47;;;;;;;;;;;10.90;93.40;;;;;;5103842;28;19924;-89
2022/03/25 09:29:13;;;;;;;;;;;11.00;93.80;;;;;;5105230;28;19920;-90
2022/03/25 09:31:42;;;;;;;;;;;11.20;93.60;;;;;;5105208;28;19920;-90
2022/03/25 09:37:07;;;;;;;;;;;11.30;92.10;;;;;;5102057;28;19977;-90
2022/03/25 09:39:33;;;;;;;;;;;11.50;91.90;;;;;;5105465;28;19926;-90
2022/03/25 09:42:00;;;;;;;;;;;11.60;92.10;;;;;;5105581;28;20119;-94
2022/03/25 09:44:27;;;;;;;;;;;11.70;91.30;;;;;;5103571;28;19944;-90
2022/03/25 09:46:55;;;;;;;;;;;11.90;91.10;;;;;;5103763;28;20139;-90
2022/03/25 09:49:22;;;;;;;;;;;11.90;90.70;;;;;;5101799;28;19979;-89
2022/03/25 09:51:48;;;;;;;;;;;12.10;89.50;;;;;;5102592;28;19928;-93
2022/03/25 09:54:16;;;;;;;;;;;12.20;90.00;;;;;;5104266;28;19920;-93
2022/03/25 09:56:43;;;;;;;;;;;12.40;88.10;;;;;;5103710;28;19920;-92
2022/03/25 09:59:10;;;;;;;;;;;12.50;89.80;;;;;;5106404;28;19926;-90
2022/03/25 10:01:37;;;;;;;;;;;12.60;88.30;;;;;;5100833;28;20212;-93
2022/03/25 10:04:05;;;;;;;;;;;12.70;89.00;;;;;;5100383;28;19979;-93
2022/03/25 10:06:45;;;;;;;;;;;12.80;89.80;;;;;;5104402;28;19983;-94
2022/03/25 10:09:21;;;;;;;;;;;13.00;86.70;;;;;;5105303;28;20115;-91
2022/03/25 10:11:47;;;;;;;;;;;13.10;87.80;;;;;;5105184;28;19927;-90
2022/03/25 10:14:15;;;;;;;;;;;13.20;87.00;;;;;;5104869;28;19992;-91
2022/03/25 10:16:42;;;;;;;;;;;13.40;86.40;;;;;;5104179;28;19920;-90
2022/03/25 10:19:10;;;;;;;;;;;13.50;85.40;;;;;;5103753;28;19928;-89
2022/03/25 10:21:50;;;;;;;;;;;13.70;84.80;;;;;;5104322;28;19920;-89
2022/03/25 10:24:18;;;;;;;;;;;13.80;85.10;;;;;;5105604;28;19920;-88
2022/03/25 10:26:44;;;;;;;;;;;14.00;83.40;;;;;;5103985;28;20119;-90
2022/03/25 10:29:20;;;;;;;;;;;14.10;83.00;;;;;;5122771;22;19983;-70
2022/03/25 10:32:01;;;;;;;;;;;14.20;81.80;;;;;;5083461;28;19983;-70
2022/03/25 10:34:29;;;;;;;;;;;14.30;81.50;;;;;;5083485;28;19927;-68
2022/03/25 10:36:59;;;;;;;;;;;14.50;82.60;;;;;;5082750;28;19963;-67
2022/03/25 10:39:27;;;;;;;;;;;14.70;80.60;;;;;;5083608;28;19926;-68
2022/03/25 10:41:57;;;;;;;;;;;14.80;80.70;;;;;;5087081;28;19991;-67
2022/03/25 10:44:33;;;;;;;;;;;14.90;79.40;;;;;;5082798;28;19920;-68
2022/03/25 10:47:00;;;;;;;;;;;15.10;78.70;;;;;;5082726;28;19924;-68
2022/03/25 10:49:37;;;;;;;;;;;15.20;78.00;;;;;;5083093;28;19974;-67
2022/03/25 10:52:06;;;;;;;;;;;15.30;78.40;;;;;;5082946;28;19951;-67
2022/03/25 10:54:32;;;;;;;;;;;15.30;77.90;;;;;;5083287;28;19920;-67
2022/03/25 10:56:59;;;;;;;;;;;15.40;75.40;;;;;;5081766;28;19924;-68
2022/03/25 10:59:27;;;;;;;;;;;15.30;75.50;;;;;;5081787;28;19983;-70
2022/03/25 11:01:54;;;;;;;;;;;15.50;74.80;;;;;;5082980;28;19926;-68
2022/03/25 11:04:20;;;;;;;;;;;15.60;74.30;;;;;;5083158;28;19920;-68
2022/03/25 11:06:47;;;;;;;;;;;15.70;73.30;;;;;;5082729;28;19921;-68
2022/03/25 11:09:16;;;;;;;;;;;15.70;72.80;;;;;;5083026;28;19924;-68
2022/03/25 11:11:43;;;;;;;;;;;15.90;73.00;;;;;;5081854;28;19921;-68
2022/03/25 11:14:09;;;;;;;;;;;16.00;72.60;;;;;;5082147;28;19921;-64
2022/03/25 11:16:36;;;;;;;;;;;16.20;73.30;;;;;;5082283;28;19920;-65
2022/03/25 11:19:03;;;;;;;;;;;16.20;73.00;;;;;;5082318;28;19920;-65
2022/03/25 11:21:30;;;;;;;;;;;16.30;71.90;;;;;;5082580;28;19920;-64
2022/03/25 11:23:57;;;;;;;;;;;16.40;72.30;;;;;;5082868;28;19987;-67
2022/03/25 11:26:27;;;;;;;;;;;16.40;71.10;;;;;;5082708;28;19921;-67
2022/03/25 11:28:57;;;;;;;;;;;16.40;71.80;;;;;;5077047;28;19924;-65
2022/03/25 11:31:24;;;;;;;;;;;16.50;72.10;;;;;;5086049;28;19920;-65
2022/03/25 11:34:09;;;;;;;;;;;16.60;71.20;;;;;;5086887;28;20139;-64
2022/03/25 11:36:40;;;;;;;;;;;16.70;69.40;;;;;;5085708;28;19987;-63
2022/03/25 11:39:24;;;;;;;;;;;16.90;70.60;;;;;;5083743;28;19999;-64
2022/03/25 11:41:53;;;;;;;;;;;17.00;69.10;;;;;;5085530;28;19920;-64
2022/03/25 11:44:23;;;;;;;;;;;17.00;69.30;;;;;;5085199;28;19987;-64
2022/03/25 11:47:08;;;;;;;;;;;17.20;70.40;;;;;;5085266;28;19920;-64
2022/03/25 11:49:36;;;;;;;;;;;17.30;71.30;;;;;;5082569;28;19927;-65
2022/03/25 11:52:26;;;;;;;;;;;17.40;69.70;;;;;;5084748;28;19921;-68
2022/03/25 11:54:55;;;;;;;;;;;17.50;67.20;;;;;;5085624;28;19933;-64
2022/03/25 11:57:25;;;;;;;;;;;17.60;68.70;;;;;;5069465;28;19928;-64
2022/03/25 11:59:52;;;;;;;;;;;17.70;68.50;;;;;;5066130;28;19924;-67
2022/03/25 12:02:26;;;;;;;;;;;17.70;65.80;;;;;;5066358;28;20107;-65
2022/03/25 12:04:52;;;;;;;;;;;17.70;66.90;;;;;;5066424;28;19921;-65
2022/03/25 12:07:19;;;;;;;;;;;17.80;66.60;;;;;;5084125;28;19920;-65
2022/03/25 12:09:46;;;;;;;;;;;17.90;65.80;;;;;;5086335;28;19940;-64
2022/03/25 12:12:13;;;;;;;;;;;17.80;65.70;;;;;;5086424;28;19928;-65
2022/03/25 12:14:54;;;;;;;;;;;17.80;67.20;;;;;;5086171;28;20002;-65
2022/03/25 12:17:25;;;;;;;;;;;17.80;66.50;;;;;;5083967;28;19920;-65
2022/03/25 12:19:53;;;;;;;;;;;18.10;65.90;;;;;;5085382;28;19927;-65
2022/03/25 12:22:28;;;;;;;;;;;18.30;65.80;;;;;;5085793;28;19962;-64
2022/03/25 12:24:55;;;;;;;;;;;18.30;65.80;;;;;;5085971;28;19983;-67
2022/03/25 12:27:23;;;;;;;;;;;18.40;65.90;;;;;;5085034;28;20208;-68
2022/03/25 12:29:51;;;;;;;;;;;18.40;65.40;;;;;;5085162;28;19920;-68
2022/03/25 12:32:18;;;;;;;;;;;18.30;64.60;;;;;;5083389;28;19921;-68
2022/03/25 12:34:55;;;;;;;;;;;18.30;64.50;;;;;;5085861;28;19927;-67
2022/03/25 12:37:28;;;;;;;;;;;18.30;64.30;;;;;;5082381;28;20207;-68
2022/03/25 12:39:55;;;;;;;;;;;18.50;64.40;;;;;;5086166;28;19924;-65
2022/03/25 12:42:21;;;;;;;;;;;18.60;63.90;;;;;;5085010;28;20109;-67
2022/03/25 12:44:53;;;;;;;;;;;18.60;63.60;;;;;;5077003;28;19927;-69
2022/03/25 12:47:29;;;;;;;;;;;18.50;63.40;;;;;;5092586;28;19920;-67
2022/03/25 12:49:58;;;;;;;;;;;18.60;62.80;;;;;;5077261;28;19921;-67
2022/03/25 12:52:25;;;;;;;;;;;18.70;63.70;;;;;;5085400;28;20219;-68
2022/03/25 12:54:53;;;;;;;;;;;18.90;63.50;;;;;;5081145;28;19920;-67
2022/03/25 12:57:32;;;;;;;;;;;18.90;62.90;;;;;;5078832;28;19921;-68
2022/03/25 12:59:59;;;;;;;;;;;19.00;62.30;;;;;;5066859;28;19921;-69
2022/03/25 13:02:33;;;;;;;;;;;19.00;62.80;;;;;;5064995;28;19921;-69
2022/03/25 13:05:17;;;;;;;;;;;19.20;62.60;;;;;;5065361;28;19920;-69
2022/03/25 13:07:44;;;;;;;;;;;19.30;61.70;;;;;;5065535;28;19936;-68
2022/03/25 13:10:11;;;;;;;;;;;19.40;62.70;;;;;;5065338;28;19925;-68
2022/03/25 13:12:39;;;;;;;;;;;19.60;60.70;;;;;;5082780;28;19920;-68
2022/03/25 13:15:06;;;;;;;;;;;19.70;60.80;;;;;;5084853;28;19920;-68
2022/03/25 13:17:37;;;;;;;;;;;19.70;60.60;;;;;;5084817;28;19920;-69
2022/03/25 13:20:06;;;;;;;;;;;19.50;62.00;;;;;;5085312;28;19920;-69
2022/03/25 13:22:34;;;;;;;;;;;19.80;61.30;;;;;;5084816;28;19921;-69
2022/03/25 13:25:00;;;;;;;;;;;19.60;60.40;;;;;;5084985;28;19920;-69
2022/03/25 13:27:27;;;;;;;;;;;19.60;60.30;;;;;;5084326;28;19920;-69
2022/03/25 13:29:54;;;;;;;;;;;19.40;58.90;;;;;;5084693;28;19920;-68
2022/03/25 13:32:31;;;;;;;;;;;19.50;59.30;;;;;;5084806;28;19987;-69
2022/03/25 13:35:05;;;;;;;;;;;19.40;58.60;;;;;;5084700;28;20200;-69
2022/03/25 13:37:32;;;;;;;;;;;19.50;59.90;;;;;;5084516;28;19959;-68
2022/03/25 13:40:00;;;;;;;;;;;19.30;59.80;;;;;;5084643;28;19920;-69
2022/03/25 13:42:36;;;;;;;;;;;19.50;61.30;;;;;;5084316;28;19921;-69
2022/03/25 13:45:07;;;;;;;;;;;19.80;60.20;;;;;;5084608;28;19920;-68
2022/03/25 13:47:34;;;;;;;;;;;19.90;58.90;;;;;;5084313;28;20115;-68
2022/03/25 13:50:10;;;;;;;;;;;20.10;59.10;;;;;;5084308;28;19920;-68
2022/03/25 13:52:37;;;;;;;;;;;20.10;58.70;;;;;;5068555;28;19927;-70
2022/03/25 13:55:15;;;;;;;;;;;20.00;58.20;;;;;;5081458;28;19920;-68
2022/03/25 13:57:41;;;;;;;;;;;19.90;58.30;;;;;;5082346;28;19925;-69
2022/03/25 14:00:09;;;;;;;;;;;20.00;59.10;;;;;;5072339;28;19920;-68
2022/03/25 14:02:36;;;;;;;;;;;20.30;59.90;;;;;;5064065;28;19924;-69
2022/03/25 14:05:12;;;;;;;;;;;20.60;59.50;;;;;;5068394;28;19926;-68
2022/03/25 14:07:38;;;;;;;;;;;20.60;59.50;;;;;;5084108;28;19943;-68
2022/03/25 14:10:06;;;;;;;;;;;20.50;58.90;;;;;;5083519;28;19927;-68
2022/03/25 14:12:34;;;;;;;;;;;20.20;58.90;;;;;;5083530;28;19943;-67
2022/03/25 14:15:02;;;;;;;;;;;20.10;59.70;;;;;;5083226;28;19963;-70
2022/03/25 14:17:29;;;;;;;;;;;20.00;57.80;;;;;;5083445;28;19920;-67
2022/03/25 14:19:58;;;;;;;;;;;20.10;58.20;;;;;;5083787;28;19921;-68
2022/03/25 14:22:25;;;;;;;;;;;20.20;58.50;;;;;;5063921;28;19920;-68
2022/03/25 14:24:51;;;;;;;;;;;20.00;59.00;;;;;;5063708;28;19963;-70
2022/03/25 14:27:18;;;;;;;;;;;19.90;58.70;;;;;;5063236;28;19920;-69
2022/03/25 14:29:46;;;;;;;;;;;19.90;58.60;;;;;;5080077;28;20254;-69
2022/03/25 14:32:13;;;;;;;;;;;19.90;58.30;;;;;;5079694;28;19920;-69
2022/03/25 14:34:40;;;;;;;;;;;19.90;58.50;;;;;;5083838;28;19924;-68